createdAt,value
2019-06-26T00:00:47.721Z,99.90
2019-06-26T00:03:17.477Z,99.90
2019-06-26T00:05:46.335Z,99.90
2019-06-26T00:08:15.927Z,99.90
2019-06-26T00:10:47.058Z,99.90
2019-06-26T00:13:25.627Z,99.90
2019-06-26T00:15:44.795Z,99.90
2019-06-26T00:18:13.668Z,99.90
2019-06-26T00:20:43.243Z,99.90
2019-06-26T00:23:12.848Z,99.90
2019-06-26T00:25:41.726Z,99.90
2019-06-26T00:28:10.558Z,99.90
2019-06-26T00:30:39.390Z,99.90
2019-06-26T00:33:08.223Z,99.90
2019-06-26T00:35:38.300Z,99.90
2019-06-26T00:40:36.077Z,99.90
2019-06-26T00:43:05.304Z,99.90
2019-06-26T00:45:33.777Z,99.90
2019-06-26T00:48:03.375Z,99.90
2019-06-26T00:50:32.206Z,99.90
2019-06-26T00:53:01.783Z,99.90
2019-06-26T00:55:31.373Z,99.90
2019-06-26T00:58:00.772Z,99.90
2019-06-26T01:00:30.538Z,99.90
2019-06-26T01:02:59.408Z,99.90
2019-06-26T01:05:28.303Z,99.90
2019-06-26T01:07:57.372Z,99.90
2019-06-26T01:10:26.203Z,99.90
2019-06-26T01:12:56.475Z,99.90
2019-06-26T01:15:25.328Z,99.90
2019-06-26T01:17:54.185Z,99.90
2019-06-26T01:20:23.767Z,99.90
2019-06-26T01:22:52.627Z,99.90
2019-06-26T01:25:21.457Z,99.90
2019-06-26T01:27:51.187Z,99.90
2019-06-26T01:30:19.875Z,99.90
2019-06-26T01:32:49.275Z,99.90
2019-06-26T01:37:48.276Z,99.90
2019-06-26T01:40:17.862Z,99.90
2019-06-26T01:42:46.705Z,99.90
2019-06-26T01:45:15.540Z,99.90
2019-06-26T01:47:44.397Z,99.90
2019-06-26T01:50:13.230Z,99.90
2019-06-26T01:52:42.818Z,99.90
2019-06-26T01:55:12.784Z,99.90
2019-06-26T01:57:41.634Z,99.90
2019-06-26T02:02:39.896Z,99.90
2019-06-26T02:05:08.755Z,99.90
2019-06-26T02:07:37.602Z,99.90
2019-06-26T02:12:49.008Z,99.90
2019-06-26T02:15:18.594Z,99.90
2019-06-26T02:17:47.431Z,99.90
2019-06-26T02:20:16.797Z,99.90
2019-06-26T02:22:45.642Z,99.90
2019-06-26T02:25:15.784Z,99.90
2019-06-26T02:27:44.626Z,99.90
2019-06-26T02:30:13.988Z,99.90
2019-06-26T02:32:44.394Z,99.90
2019-06-26T02:35:13.243Z,99.90
2019-06-26T02:37:42.100Z,99.90
2019-06-26T02:40:10.989Z,99.90
2019-06-26T02:42:40.704Z,99.90
2019-06-26T02:45:09.547Z,99.90
2019-06-26T02:47:39.596Z,99.90
2019-06-26T02:50:08.434Z,99.90
2019-06-26T02:52:37.500Z,99.90
2019-06-26T02:55:07.091Z,99.90
2019-06-26T02:57:35.971Z,99.90
2019-06-26T03:00:05.082Z,99.90
2019-06-26T03:02:33.792Z,99.90
2019-06-26T03:05:02.863Z,99.90
2019-06-26T03:07:31.504Z,99.90
2019-06-26T03:10:00.346Z,99.90
2019-06-26T03:12:29.190Z,99.90
2019-06-26T03:15:08.213Z,99.90
2019-06-26T03:17:27.806Z,99.90
2019-06-26T03:19:56.649Z,99.90
2019-06-26T03:22:25.472Z,99.90
2019-06-26T03:24:54.313Z,99.90
2019-06-26T03:27:23.892Z,99.90
2019-06-26T03:29:52.741Z,99.90
2019-06-26T03:32:21.582Z,99.90
2019-06-26T03:34:51.508Z,99.90
2019-06-26T03:37:20.016Z,99.90
2019-06-26T03:39:48.860Z,99.90
2019-06-26T03:42:17.704Z,99.90
2019-06-26T03:44:46.534Z,99.90
2019-06-26T03:47:15.384Z,99.90
2019-06-26T03:49:44.257Z,99.90
2019-06-26T03:52:13.078Z,99.90
2019-06-26T03:54:42.024Z,99.90
2019-06-26T03:57:10.866Z,99.90
2019-06-26T03:59:39.712Z,99.90
2019-06-26T04:02:11.979Z,99.90
2019-06-26T04:04:40.812Z,99.90
2019-06-26T04:07:10.018Z,99.90
2019-06-26T04:09:38.839Z,99.90
2019-06-26T04:12:07.695Z,99.90
2019-06-26T04:14:36.542Z,99.90
2019-06-26T04:17:05.378Z,99.90
2019-06-26T04:22:03.676Z,99.90
2019-06-26T04:24:32.514Z,99.90
2019-06-26T04:27:01.354Z,99.90
2019-06-26T04:29:30.206Z,99.90
2019-06-26T04:32:00.320Z,99.90
2019-06-26T04:34:29.165Z,99.90
2019-06-26T04:36:59.552Z,99.90
2019-06-26T04:39:28.411Z,99.90
2019-06-26T04:41:57.266Z,99.90
2019-06-26T04:44:26.106Z,99.90
2019-06-26T04:46:54.994Z,99.90
2019-06-26T04:49:23.815Z,99.90
2019-06-26T04:51:52.652Z,99.90
2019-06-26T04:54:21.477Z,99.90
2019-06-26T04:56:50.326Z,99.90
2019-06-26T04:59:19.170Z,99.90
2019-06-26T05:04:18.184Z,99.90
2019-06-26T05:06:47.053Z,99.90
2019-06-26T05:09:16.475Z,99.90
2019-06-26T05:11:44.684Z,99.90
2019-06-26T05:14:13.517Z,99.90
2019-06-26T05:16:42.348Z,99.90
2019-06-26T05:19:12.096Z,99.90
2019-06-26T05:21:40.795Z,99.90
2019-06-26T05:24:09.626Z,99.90
2019-06-26T05:26:39.218Z,99.90
2019-06-26T05:29:08.086Z,99.90
2019-06-26T05:31:36.971Z,99.90
2019-06-26T05:34:05.792Z,99.90
2019-06-26T05:36:34.661Z,99.90
2019-06-26T05:39:03.470Z,99.90
2019-06-26T05:41:32.314Z,99.90
2019-06-26T05:44:01.150Z,99.90
2019-06-26T05:46:31.815Z,99.90
2019-06-26T05:48:59.582Z,99.90
2019-06-26T05:51:29.537Z,99.90
2019-06-26T05:53:58.495Z,99.90
2019-06-26T05:56:27.221Z,99.90
2019-06-26T05:58:56.060Z,99.90
2019-06-26T06:01:26.042Z,99.90
2019-06-26T06:03:54.875Z,99.90
2019-06-26T06:06:23.718Z,99.90
2019-06-26T06:08:52.566Z,99.90
2019-06-26T06:11:21.401Z,99.90
2019-06-26T06:13:50.596Z,99.90
2019-06-26T06:16:19.422Z,99.90
2019-06-26T06:18:48.286Z,99.90
2019-06-26T06:21:18.060Z,99.90
2019-06-26T06:23:48.719Z,99.90
2019-06-26T06:26:15.906Z,99.90
2019-06-26T06:28:45.463Z,99.90
2019-06-26T06:31:14.384Z,99.90
2019-06-26T06:33:43.143Z,99.90
2019-06-26T06:36:11.979Z,99.90
2019-06-26T06:38:40.839Z,99.90
2019-06-26T06:41:09.676Z,99.90
2019-06-26T06:43:38.513Z,99.90
2019-06-26T06:46:07.363Z,99.90
2019-06-26T06:48:36.210Z,99.90
2019-06-26T06:51:05.796Z,99.90
2019-06-26T06:53:34.639Z,99.90
2019-06-26T06:56:03.474Z,99.90
2019-06-26T06:58:32.357Z,99.90
2019-06-26T07:01:01.146Z,99.90
2019-06-26T07:03:29.978Z,99.90
2019-06-26T07:05:58.823Z,99.90
2019-06-26T07:08:28.415Z,99.90
2019-06-26T07:10:57.485Z,99.90
2019-06-26T07:13:26.585Z,99.90
2019-06-26T07:15:55.244Z,99.90
2019-06-26T07:18:24.075Z,99.90
2019-06-26T07:20:53.287Z,99.90
2019-06-26T07:23:22.145Z,99.90
2019-06-26T07:25:50.974Z,99.90
2019-06-26T07:28:20.599Z,99.90
2019-06-26T07:30:49.881Z,99.90
2019-06-26T07:33:19.269Z,99.90
2019-06-26T07:35:49.685Z,99.90
2019-06-26T07:38:18.543Z,99.90
2019-06-26T07:40:47.412Z,99.90
2019-06-26T07:43:17.002Z,99.90
2019-06-26T07:45:46.101Z,99.90
2019-06-26T07:48:14.939Z,99.90
2019-06-26T07:50:43.783Z,99.90
2019-06-26T07:53:13.423Z,99.90
2019-06-26T07:55:42.317Z,99.90
2019-06-26T07:58:11.849Z,99.90
2019-06-26T08:00:43.356Z,99.90
2019-06-26T08:03:14.715Z,99.90
2019-06-26T08:05:43.244Z,99.90
2019-06-26T08:08:14.496Z,99.90
2019-06-26T08:10:40.000Z,99.90
2019-06-26T08:13:11.558Z,99.90
2019-06-26T08:15:42.134Z,99.90
2019-06-26T08:18:11.393Z,99.90
2019-06-26T08:20:55.089Z,99.90
2019-06-26T08:23:09.478Z,99.90
2019-06-26T08:25:38.321Z,99.90
2019-06-26T08:28:07.169Z,99.90
2019-06-26T08:30:36.741Z,99.90
2019-06-26T08:33:05.569Z,99.90
2019-06-26T08:35:35.141Z,99.90
2019-06-26T08:38:10.956Z,99.90
2019-06-26T08:40:32.820Z,99.90
2019-06-26T08:43:01.692Z,99.90
2019-06-26T08:45:30.544Z,99.90
2019-06-26T08:48:13.423Z,99.90
2019-06-26T08:50:28.221Z,99.90
2019-06-26T08:52:57.573Z,99.90
2019-06-26T08:55:26.288Z,99.90
2019-06-26T08:57:55.119Z,99.90
2019-06-26T09:00:23.963Z,99.90
2019-06-26T09:02:52.817Z,99.90
2019-06-26T09:05:21.665Z,99.90
2019-06-26T09:07:50.561Z,99.90
2019-06-26T09:10:19.338Z,99.90
2019-06-26T09:12:48.177Z,99.90
2019-06-26T09:15:17.014Z,99.90
2019-06-26T09:17:45.854Z,99.90
2019-06-26T09:20:14.695Z,99.90
2019-06-26T09:22:43.520Z,99.90
2019-06-26T09:25:21.763Z,99.90
2019-06-26T09:27:41.749Z,99.90
2019-06-26T09:30:10.588Z,99.90
2019-06-26T09:32:39.432Z,99.90
2019-06-26T09:35:08.422Z,99.90
2019-06-26T09:37:37.256Z,99.90
2019-06-26T09:40:06.103Z,99.90
2019-06-26T09:42:35.754Z,99.90
2019-06-26T09:45:04.609Z,99.90
2019-06-26T09:47:33.434Z,99.90
2019-06-26T09:50:02.309Z,99.90
2019-06-26T09:52:32.939Z,99.90
2019-06-26T09:55:00.489Z,99.90
2019-06-26T09:57:29.323Z,99.90
2019-06-26T09:59:59.116Z,99.90
2019-06-26T10:02:27.969Z,99.90
2019-06-26T10:04:56.777Z,99.90
2019-06-26T10:07:27.445Z,99.90
2019-06-26T10:09:55.115Z,99.90
2019-06-26T10:12:24.536Z,99.90
2019-06-26T10:14:54.131Z,99.90
2019-06-26T10:17:22.960Z,99.90
2019-06-26T10:19:54.039Z,99.90
2019-06-26T10:22:20.654Z,99.90
2019-06-26T10:24:49.470Z,99.90
2019-06-26T10:27:18.296Z,99.90
2019-06-26T10:29:47.135Z,99.90
2019-06-26T10:32:15.974Z,99.90
2019-06-26T10:34:44.826Z,99.90
2019-06-26T10:37:13.661Z,99.90
2019-06-26T10:39:44.072Z,99.90
2019-06-26T10:42:12.878Z,99.90
2019-06-26T10:44:41.747Z,99.90
2019-06-26T10:47:10.772Z,99.90
2019-06-26T10:49:39.452Z,99.90
2019-06-26T10:52:09.037Z,99.90
2019-06-26T10:54:38.461Z,99.90
2019-06-26T10:57:07.653Z,99.90
2019-06-26T10:59:37.548Z,99.90
2019-06-26T11:02:06.083Z,99.90
2019-06-26T11:04:34.976Z,99.90
2019-06-26T11:07:05.703Z,99.90
2019-06-26T11:09:35.051Z,99.90
2019-06-26T11:12:04.653Z,99.90
2019-06-26T11:14:33.555Z,99.90
2019-06-26T11:17:02.351Z,99.90
2019-06-26T11:19:43.227Z,99.90
2019-06-26T11:24:30.939Z,99.90
2019-06-26T11:26:59.795Z,99.90
2019-06-26T11:29:28.627Z,99.90
2019-06-26T11:31:58.220Z,99.90
2019-06-26T11:34:27.057Z,99.90
2019-06-26T11:37:03.964Z,96.10
2019-06-26T11:39:24.762Z,97.40
2019-06-26T11:41:53.604Z,96.10
2019-06-26T11:44:22.439Z,93.90
2019-06-26T11:46:51.277Z,94.20
2019-06-26T11:49:20.869Z,94.40
2019-06-26T11:51:49.712Z,94.90
2019-06-26T11:54:18.547Z,93.00
2019-06-26T11:56:47.406Z,92.10
2019-06-26T11:59:16.258Z,90.30
2019-06-26T12:01:45.140Z,84.80
2019-06-26T12:04:13.983Z,75.80
2019-06-26T12:06:45.952Z,73.80
2019-06-26T12:09:11.856Z,75.50
2019-06-26T12:11:40.719Z,73.00
2019-06-26T12:14:10.308Z,74.00
2019-06-26T12:16:39.115Z,72.40
2019-06-26T12:19:08.032Z,71.50
2019-06-26T12:21:37.571Z,70.60
2019-06-26T12:24:06.403Z,67.80
2019-06-26T12:26:35.244Z,66.20
2019-06-26T12:31:33.941Z,65.70
2019-06-26T12:34:03.703Z,65.30
2019-06-26T12:36:32.527Z,64.60
2019-06-26T12:39:01.394Z,62.90
2019-06-26T12:41:30.230Z,63.20
2019-06-26T12:44:00.191Z,62.50
2019-06-26T12:46:29.732Z,63.30
2019-06-26T12:48:58.621Z,61.00
2019-06-26T12:51:27.506Z,60.40
2019-06-26T12:53:58.491Z,60.70
2019-06-26T12:56:25.161Z,61.50
2019-06-26T12:58:53.974Z,60.80
2019-06-26T13:01:25.284Z,63.30
2019-06-26T13:03:53.169Z,62.50
2019-06-26T13:06:22.010Z,59.40
2019-06-26T13:08:51.615Z,58.90
2019-06-26T13:11:22.365Z,60.50
2019-06-26T13:14:02.186Z,61.50
2019-06-26T13:16:21.152Z,61.80
2019-06-26T13:18:50.040Z,56.10
2019-06-26T13:21:18.827Z,57.80
2019-06-26T13:23:47.684Z,57.10
2019-06-26T13:26:16.509Z,58.40
2019-06-26T13:28:45.553Z,57.40
2019-06-26T13:31:14.399Z,57.80
2019-06-26T13:33:43.998Z,58.00
2019-06-26T13:36:12.835Z,57.90
2019-06-26T13:38:41.695Z,57.30
2019-06-26T13:41:10.531Z,56.30
2019-06-26T13:43:39.422Z,56.70
2019-06-26T13:46:08.235Z,57.70
2019-06-26T13:48:37.079Z,55.70
2019-06-26T13:51:09.802Z,54.50
2019-06-26T13:53:34.798Z,54.60
2019-06-26T13:56:03.625Z,53.60
2019-06-26T13:58:34.004Z,54.70
2019-06-26T14:01:02.854Z,54.10
2019-06-26T14:03:31.823Z,53.00
2019-06-26T14:06:01.411Z,52.90
2019-06-26T14:08:32.886Z,51.70
2019-06-26T14:10:59.866Z,52.10
2019-06-26T14:13:29.131Z,52.80
2019-06-26T14:15:58.021Z,52.90
2019-06-26T14:18:30.190Z,53.50
2019-06-26T14:20:55.705Z,52.70
2019-06-26T14:23:24.550Z,53.10
2019-06-26T14:25:53.377Z,53.30
2019-06-26T14:28:22.201Z,53.20
2019-06-26T14:30:51.043Z,52.50
2019-06-26T14:33:19.891Z,52.40
2019-06-26T14:35:48.730Z,52.60
2019-06-26T14:38:17.563Z,52.50
2019-06-26T14:40:48.424Z,52.50
2019-06-26T14:43:17.263Z,52.20
2019-06-26T14:45:46.097Z,50.80
2019-06-26T14:48:14.930Z,51.70
2019-06-26T14:50:43.764Z,51.50
2019-06-26T14:53:12.602Z,51.30
2019-06-26T14:55:41.424Z,51.20
2019-06-26T14:58:10.509Z,51.60
2019-06-26T15:00:39.334Z,51.50
2019-06-26T15:03:08.164Z,50.60
2019-06-26T15:05:37.012Z,51.20
2019-06-26T15:08:05.868Z,51.30
2019-06-26T15:10:35.123Z,51.60
2019-06-26T15:13:05.186Z,48.80
2019-06-26T15:15:34.038Z,48.60
2019-06-26T15:18:03.758Z,49.30
2019-06-26T15:20:32.612Z,49.90
2019-06-26T15:23:01.464Z,50.10
2019-06-26T15:25:30.532Z,50.10
2019-06-26T15:27:59.124Z,48.50
2019-06-26T15:30:28.472Z,48.10
2019-06-26T15:32:57.315Z,47.90
2019-06-26T15:35:26.183Z,47.90
2019-06-26T15:37:55.033Z,47.50
2019-06-26T15:40:23.884Z,48.30
2019-06-26T15:42:52.757Z,47.20
2019-06-26T15:45:21.589Z,47.70
2019-06-26T15:47:50.501Z,48.30
2019-06-26T15:50:19.252Z,47.90
2019-06-26T15:52:48.100Z,49.30
2019-06-26T15:55:17.303Z,49.00
2019-06-26T15:57:46.487Z,50.30
2019-06-26T16:00:15.348Z,49.60
2019-06-26T16:02:44.901Z,49.10
2019-06-26T16:05:13.745Z,49.80
2019-06-26T16:07:42.594Z,48.90
2019-06-26T16:12:40.877Z,49.40
2019-06-26T16:15:09.705Z,50.30
2019-06-26T16:17:42.435Z,50.30
2019-06-26T16:20:11.272Z,50.00
2019-06-26T16:22:40.117Z,50.50
2019-06-26T16:25:09.290Z,50.50
2019-06-26T16:27:38.134Z,52.20
2019-06-26T16:30:07.743Z,51.60
2019-06-26T16:32:36.586Z,51.20
2019-06-26T16:35:06.613Z,51.20
2019-06-26T16:37:35.197Z,51.70
2019-06-26T16:40:04.078Z,52.80
2019-06-26T16:42:32.903Z,51.30
2019-06-26T16:45:02.504Z,51.70
2019-06-26T16:47:31.344Z,51.70
2019-06-26T16:50:00.196Z,51.90
2019-06-26T16:52:29.787Z,51.90
2019-06-26T16:54:58.618Z,52.60
2019-06-26T16:57:27.490Z,53.60
2019-06-26T17:00:08.999Z,54.00
2019-06-26T17:04:55.366Z,55.30
2019-06-26T17:07:24.955Z,56.40
2019-06-26T17:12:23.249Z,55.90
2019-06-26T17:14:52.106Z,56.00
2019-06-26T17:17:24.066Z,57.00
2019-06-26T17:19:52.913Z,57.80
2019-06-26T17:22:21.745Z,58.20
2019-06-26T17:24:50.625Z,59.00
2019-06-26T17:27:19.467Z,59.20
2019-06-26T17:29:48.948Z,59.20
2019-06-26T17:32:18.677Z,60.00
2019-06-26T17:34:47.559Z,60.10
2019-06-26T17:37:16.404Z,60.60
2019-06-26T17:39:45.275Z,60.50
2019-06-26T17:42:14.134Z,61.80
2019-06-26T17:44:43.034Z,62.50
2019-06-26T17:47:12.852Z,62.60
2019-06-26T17:49:42.525Z,63.10
2019-06-26T17:52:11.357Z,64.50
2019-06-26T17:54:40.458Z,66.60
2019-06-26T17:57:10.368Z,67.70
2019-06-26T17:59:39.944Z,67.40
2019-06-26T18:02:08.767Z,74.40
2019-06-26T18:04:38.353Z,72.50
2019-06-26T18:07:07.210Z,72.40
2019-06-26T18:09:36.048Z,71.40
2019-06-26T18:12:05.635Z,74.10
2019-06-26T18:14:35.230Z,70.80
2019-06-26T18:17:04.104Z,74.90
2019-06-26T18:19:32.913Z,74.50
2019-06-26T18:24:31.204Z,82.70
2019-06-26T18:27:01.069Z,74.10
2019-06-26T18:29:29.891Z,76.20
2019-06-26T18:31:58.730Z,73.50
2019-06-26T18:34:27.598Z,72.70
2019-06-26T18:36:56.440Z,72.60
2019-06-26T18:39:25.543Z,75.90
2019-06-26T18:41:55.086Z,78.10
2019-06-26T18:44:23.943Z,75.70
2019-06-26T18:46:52.799Z,78.60
2019-06-26T18:49:21.620Z,80.60
2019-06-26T18:51:50.450Z,79.90
2019-06-26T18:54:20.047Z,80.70
2019-06-26T18:56:48.894Z,86.20
2019-06-26T18:59:17.760Z,82.90
2019-06-26T19:01:46.611Z,81.90
2019-06-26T19:04:15.459Z,82.90
2019-06-26T19:06:45.677Z,84.90
2019-06-26T19:09:14.507Z,87.10
2019-06-26T19:11:43.390Z,88.60
2019-06-26T19:14:12.780Z,90.30
2019-06-26T19:16:43.423Z,88.40
2019-06-26T19:19:12.340Z,92.00
2019-06-26T19:21:39.764Z,92.70
2019-06-26T19:24:10.439Z,94.90
2019-06-26T19:26:37.468Z,96.70
2019-06-26T19:29:06.308Z,99.90
2019-06-26T19:31:35.186Z,99.90
2019-06-26T19:34:04.179Z,99.90
2019-06-26T19:36:48.801Z,99.90
2019-06-26T19:39:01.900Z,99.90
2019-06-26T19:41:30.748Z,99.90
2019-06-26T19:43:59.588Z,99.90
2019-06-26T19:46:28.459Z,99.90
2019-06-26T19:48:57.746Z,99.90
2019-06-26T19:51:32.206Z,99.90
2019-06-26T19:54:01.046Z,99.90
2019-06-26T19:56:30.296Z,99.90
2019-06-26T19:58:59.136Z,99.90
2019-06-26T20:01:27.979Z,99.90
2019-06-26T20:03:57.236Z,99.90
2019-06-26T20:06:26.071Z,99.90
2019-06-26T20:08:57.655Z,99.90
2019-06-26T20:11:23.739Z,99.90
2019-06-26T20:13:54.275Z,99.90
2019-06-26T20:16:21.468Z,99.90
2019-06-26T20:18:50.320Z,99.90
2019-06-26T20:23:58.931Z,99.90
2019-06-26T20:26:27.752Z,99.90
2019-06-26T20:28:56.605Z,99.90
2019-06-26T20:31:25.954Z,99.90
2019-06-26T20:33:54.350Z,99.90
2019-06-26T20:36:23.614Z,99.90
2019-06-26T20:38:52.476Z,99.90
2019-06-26T20:41:21.328Z,99.90
2019-06-26T20:43:50.187Z,99.90
2019-06-26T20:46:19.044Z,99.90
2019-06-26T20:48:47.924Z,99.90
2019-06-26T20:51:20.562Z,99.90
2019-06-26T20:53:46.319Z,99.90
2019-06-26T20:56:15.166Z,99.90
2019-06-26T20:58:44.030Z,99.90
2019-06-26T21:01:12.867Z,99.90
2019-06-26T21:03:41.722Z,99.90
2019-06-26T21:06:10.646Z,99.90
2019-06-26T21:08:39.444Z,99.90
2019-06-26T21:11:08.270Z,99.90
2019-06-26T21:13:37.997Z,99.90
2019-06-26T21:16:06.838Z,99.90
2019-06-26T21:18:36.874Z,99.90
2019-06-26T21:21:04.727Z,99.90
2019-06-26T21:23:33.362Z,99.90
2019-06-26T21:26:02.908Z,99.90
2019-06-26T21:28:33.836Z,99.90
2019-06-26T21:31:02.624Z,99.90
2019-06-26T21:33:31.460Z,99.90
2019-06-26T21:36:01.364Z,99.90
2019-06-26T21:38:30.956Z,99.90
2019-06-26T21:43:29.654Z,99.90
2019-06-26T21:45:58.531Z,99.90
2019-06-26T21:48:27.464Z,99.90
2019-06-26T21:50:58.392Z,99.90
2019-06-26T21:53:26.649Z,99.90
2019-06-26T21:59:45.856Z,99.90
2019-06-26T22:02:14.706Z,99.90
2019-06-26T22:04:43.556Z,99.90
2019-06-26T22:07:12.398Z,99.90
2019-06-26T22:09:41.251Z,99.90
2019-06-26T22:12:10.090Z,99.90
2019-06-26T22:14:40.505Z,99.90
2019-06-26T22:17:09.338Z,99.90
2019-06-26T22:19:38.187Z,99.90
2019-06-26T22:22:07.038Z,99.90
2019-06-26T22:24:35.890Z,99.90
2019-06-26T22:27:05.475Z,99.90
2019-06-26T22:29:34.323Z,99.90
2019-06-26T22:32:03.171Z,99.90
2019-06-26T22:34:32.008Z,99.90
2019-06-26T22:37:00.844Z,99.90
2019-06-26T22:39:29.708Z,99.90
2019-06-26T22:41:58.528Z,99.90
2019-06-26T22:44:28.154Z,99.90
2019-06-26T22:46:57.092Z,99.90
2019-06-26T22:49:26.140Z,99.90
2019-06-26T22:51:54.949Z,99.90
2019-06-26T22:54:23.799Z,99.90
2019-06-26T22:56:52.647Z,99.90
2019-06-26T22:59:21.511Z,99.90
2019-06-26T23:01:50.342Z,99.90
2019-06-26T23:04:19.227Z,99.90
2019-06-26T23:06:48.014Z,99.90
2019-06-26T23:09:16.848Z,99.90
2019-06-26T23:11:45.696Z,99.90
2019-06-26T23:14:15.094Z,99.90
2019-06-26T23:16:44.087Z,99.90
2019-06-26T23:19:15.027Z,99.90
2019-06-26T23:21:41.785Z,99.90
2019-06-26T23:24:10.641Z,99.90
2019-06-26T23:26:39.491Z,99.90
2019-06-26T23:29:08.344Z,99.90
2019-06-26T23:31:37.186Z,99.90
2019-06-26T23:34:06.025Z,99.90
2019-06-26T23:36:34.874Z,99.90
2019-06-26T23:39:03.969Z,99.90
2019-06-26T23:41:32.815Z,99.90
2019-06-26T23:44:02.409Z,99.90
2019-06-26T23:46:31.254Z,99.90
2019-06-26T23:49:00.565Z,99.90
2019-06-26T23:51:29.437Z,99.90
2019-06-26T23:53:58.241Z,99.90
2019-06-26T23:56:40.075Z,99.90
2019-06-26T23:58:56.469Z,99.90
